createdAt,value
2023-04-05T00:00:40.335Z,101104.72
2023-04-05T00:03:10.477Z,101109.00
2023-04-05T00:05:38.762Z,101104.88
2023-04-05T00:08:13.468Z,101082.09
2023-04-05T00:10:52.684Z,101076.50
2023-04-05T00:13:20.708Z,101101.84
2023-04-05T00:15:51.240Z,101037.03
2023-04-05T00:18:26.086Z,101099.03
2023-04-05T00:20:55.533Z,101050.38
2023-04-05T00:23:27.259Z,101074.66
2023-04-05T00:25:56.314Z,101094.75
2023-04-05T00:28:27.758Z,101061.19
2023-04-05T00:30:56.890Z,101101.72
2023-04-05T00:33:24.841Z,101080.59
2023-04-05T00:35:52.967Z,101098.34
2023-04-05T00:38:20.894Z,101098.78
2023-04-05T00:40:52.344Z,101090.59
2023-04-05T00:43:22.453Z,101073.78
2023-04-05T00:45:55.212Z,101092.44
2023-04-05T00:48:26.423Z,101078.94
2023-04-05T00:50:55.901Z,101078.84
2023-04-05T00:53:24.006Z,101075.06
2023-04-05T00:55:54.386Z,101088.47
2023-04-05T00:58:23.763Z,101082.44
2023-04-05T01:01:01.943Z,101084.94
2023-04-05T01:03:34.649Z,101065.97
2023-04-05T01:06:12.816Z,101047.63
2023-04-05T01:08:54.308Z,101024.59
2023-04-05T01:11:26.344Z,101074.16
2023-04-05T01:14:00.724Z,101072.13
2023-04-05T01:16:30.889Z,101047.41
2023-04-05T01:18:59.927Z,101077.56
2023-04-05T01:21:48.762Z,101024.13
2023-04-05T01:24:29.006Z,101069.13
2023-04-05T01:27:11.523Z,101058.28
2023-04-05T01:29:54.822Z,101000.34
2023-04-05T01:32:31.718Z,101062.09
2023-04-05T01:35:08.638Z,101023.41
2023-04-05T01:37:39.808Z,101054.78
2023-04-05T01:40:10.057Z,101054.22
2023-04-05T01:42:38.387Z,101037.25
2023-04-05T01:45:10.620Z,101049.78
2023-04-05T01:47:40.058Z,101052.88
2023-04-05T01:50:09.944Z,101054.00
2023-04-05T01:52:38.099Z,101038.13
2023-04-05T01:55:06.789Z,101028.56
2023-04-05T01:57:36.888Z,101047.00
2023-04-05T02:00:14.574Z,101032.78
2023-04-05T02:02:47.540Z,101029.53
2023-04-05T02:05:17.921Z,101056.00
2023-04-05T02:07:47.282Z,101045.84
2023-04-05T02:10:16.061Z,101041.53
2023-04-05T02:12:45.599Z,101035.59
2023-04-05T02:15:16.460Z,101043.19
2023-04-05T02:17:46.248Z,101044.75
2023-04-05T02:20:16.690Z,101043.63
2023-04-05T02:22:46.092Z,101029.97
2023-04-05T02:25:16.711Z,101018.84
2023-04-05T02:27:48.731Z,101004.34
2023-04-05T02:30:18.206Z,101046.16
2023-04-05T02:32:47.034Z,101047.72
2023-04-05T02:35:18.571Z,100995.78
2023-04-05T02:37:49.370Z,101040.41
2023-04-05T02:40:17.719Z,101025.47
2023-04-05T02:42:47.454Z,101021.56
2023-04-05T02:45:17.268Z,101040.94
2023-04-05T02:47:46.577Z,101011.66
2023-04-05T02:50:15.354Z,101020.97
2023-04-05T02:52:45.411Z,101042.19
2023-04-05T02:55:15.985Z,101010.38
2023-04-05T02:57:46.685Z,101005.47
2023-04-05T03:00:18.936Z,101049.38
2023-04-05T03:02:49.118Z,101040.53
2023-04-05T03:05:20.142Z,101036.31
2023-04-05T03:07:54.832Z,101028.72
2023-04-05T03:10:24.983Z,101029.25
2023-04-05T03:12:54.274Z,101015.47
2023-04-05T03:15:23.452Z,101011.81
2023-04-05T03:17:56.665Z,101021.25
2023-04-05T03:20:27.686Z,101017.00
2023-04-05T03:22:56.318Z,101023.63
2023-04-05T03:25:28.726Z,101021.94
2023-04-05T03:27:58.153Z,101005.88
2023-04-05T03:30:29.654Z,100973.94
2023-04-05T03:33:01.909Z,101017.69
2023-04-05T03:35:34.128Z,101022.34
2023-04-05T03:38:06.797Z,101005.84
2023-04-05T03:40:35.637Z,101018.78
2023-04-05T03:43:03.601Z,101016.81
2023-04-05T03:45:34.220Z,101021.59
2023-04-05T03:48:06.620Z,101015.41
2023-04-05T03:50:34.687Z,101015.44
2023-04-05T03:53:04.325Z,100994.19
2023-04-05T03:55:36.246Z,101016.84
2023-04-05T03:58:08.529Z,101019.97
2023-04-05T04:00:39.613Z,101012.22
2023-04-05T04:03:14.221Z,100998.00
2023-04-05T04:05:42.500Z,100994.09
2023-04-05T04:08:11.885Z,101002.22
2023-04-05T04:10:44.125Z,101008.84
2023-04-05T04:13:12.242Z,100932.75
2023-04-05T04:15:42.379Z,101002.50
2023-04-05T04:18:18.225Z,100994.09
2023-04-05T04:20:48.029Z,101000.69
2023-04-05T04:23:17.302Z,100998.03
2023-04-05T04:25:46.534Z,101006.44
2023-04-05T04:28:19.660Z,101009.25
2023-04-05T04:30:48.726Z,101014.03
2023-04-05T04:33:20.116Z,100995.72
2023-04-05T04:35:50.737Z,101004.72
2023-04-05T04:38:20.832Z,101014.59
2023-04-05T04:40:51.251Z,100940.16
2023-04-05T04:43:27.252Z,101004.00
2023-04-05T04:45:57.636Z,100994.00
2023-04-05T04:48:28.577Z,100970.22
2023-04-05T04:50:57.505Z,101010.06
2023-04-05T04:53:26.031Z,101011.34
2023-04-05T04:55:55.388Z,101007.41
2023-04-05T04:58:23.443Z,101004.19
2023-04-05T05:00:55.919Z,100987.56
2023-04-05T05:03:26.829Z,100970.63
2023-04-05T05:05:58.768Z,101002.84
2023-04-05T05:08:27.807Z,101008.97
2023-04-05T05:10:56.570Z,101008.56
2023-04-05T05:13:29.943Z,101014.03
2023-04-05T05:16:02.237Z,101005.19
2023-04-05T05:18:33.725Z,101025.28
2023-04-05T05:21:08.148Z,101020.22
2023-04-05T05:23:40.581Z,101013.78
2023-04-05T05:26:09.105Z,101025.88
2023-04-05T05:28:40.624Z,101025.47
2023-04-05T05:31:09.045Z,101002.50
2023-04-05T05:33:37.474Z,101013.53
2023-04-05T05:36:09.398Z,100998.03
2023-04-05T05:38:37.543Z,101001.28
2023-04-05T05:41:06.022Z,100957.81
2023-04-05T05:43:34.295Z,101005.94
2023-04-05T05:46:07.639Z,101017.31
2023-04-05T05:48:38.448Z,101001.69
2023-04-05T05:51:17.710Z,101019.13
2023-04-05T05:53:47.187Z,101027.31
2023-04-05T05:56:17.217Z,101032.78
2023-04-05T05:58:47.289Z,101008.59
2023-04-05T06:01:15.544Z,101011.66
2023-04-05T06:03:44.332Z,101029.38
2023-04-05T06:06:14.969Z,101029.50
2023-04-05T06:08:44.378Z,101025.09
2023-04-05T06:11:22.845Z,101030.66
2023-04-05T06:13:52.617Z,101032.19
2023-04-05T06:16:23.007Z,101031.00
2023-04-05T06:18:52.277Z,101035.63
2023-04-05T06:21:22.577Z,100961.94
2023-04-05T06:23:54.350Z,100985.88
2023-04-05T06:26:27.150Z,101022.78
2023-04-05T06:28:55.901Z,101012.75
2023-04-05T06:31:28.701Z,100973.84
2023-04-05T06:33:58.892Z,101024.88
2023-04-05T06:36:34.376Z,101020.97
2023-04-05T06:39:03.214Z,101005.88
2023-04-05T06:41:31.518Z,100959.81
2023-04-05T06:44:09.332Z,101005.47
2023-04-05T06:46:41.776Z,100958.13
2023-04-05T06:49:11.143Z,101012.13
2023-04-05T06:51:42.393Z,101007.13
2023-04-05T06:54:12.456Z,101009.22
2023-04-05T06:56:40.542Z,101007.53
2023-04-05T06:59:09.092Z,100967.56
2023-04-05T07:01:37.596Z,100989.84
2023-04-05T07:04:06.189Z,100995.63
2023-04-05T07:06:39.397Z,101014.84
2023-04-05T07:09:09.724Z,101005.75
2023-04-05T07:11:42.610Z,101008.59
2023-04-05T07:14:11.157Z,100949.84
2023-04-05T07:16:42.906Z,100996.94
2023-04-05T07:19:12.364Z,100988.19
2023-04-05T07:21:41.542Z,100999.84
2023-04-05T07:24:15.827Z,100988.13
2023-04-05T07:26:43.954Z,101001.59
2023-04-05T07:29:13.415Z,100995.66
2023-04-05T07:31:42.894Z,100978.38
2023-04-05T07:34:12.201Z,100994.19
2023-04-05T07:36:41.008Z,100987.66
2023-04-05T07:39:10.731Z,101003.97
2023-04-05T07:41:40.202Z,101002.13
2023-04-05T07:44:09.442Z,100952.19
2023-04-05T07:46:38.688Z,100972.59
2023-04-05T07:49:08.341Z,100983.56
2023-04-05T07:51:38.562Z,100995.84
2023-04-05T07:54:15.685Z,100960.03
2023-04-05T07:56:46.169Z,100984.09
2023-04-05T07:59:15.032Z,100996.09
2023-04-05T08:01:46.353Z,101000.44
2023-04-05T08:04:15.015Z,100979.28
2023-04-05T08:06:46.203Z,100997.25
2023-04-05T08:09:17.306Z,100956.88
2023-04-05T08:11:47.305Z,101001.81
2023-04-05T08:14:18.043Z,100991.56
2023-04-05T08:16:53.329Z,100957.06
2023-04-05T08:19:22.950Z,100986.84
2023-04-05T08:21:55.064Z,100981.63
2023-04-05T08:24:25.403Z,100987.34
2023-04-05T08:26:56.371Z,100980.09
2023-04-05T08:29:28.045Z,100937.53
2023-04-05T08:31:58.513Z,100979.63
2023-04-05T08:34:28.127Z,100984.03
2023-04-05T08:36:59.555Z,100972.13
2023-04-05T08:39:30.836Z,100975.31
2023-04-05T08:42:04.920Z,100965.69
2023-04-05T08:44:33.198Z,100977.91
2023-04-05T08:47:02.686Z,100970.16
2023-04-05T08:49:31.441Z,100941.47
2023-04-05T08:52:03.324Z,100958.59
2023-04-05T08:54:33.437Z,100967.25
2023-04-05T08:57:08.833Z,100926.41
2023-04-05T08:59:40.987Z,100971.81
2023-04-05T09:02:16.478Z,100969.25
2023-04-05T09:04:53.124Z,100951.88
2023-04-05T09:07:26.320Z,100960.47
2023-04-05T09:10:00.796Z,100945.19
2023-04-05T09:12:34.745Z,100917.13
2023-04-05T09:15:05.143Z,100883.56
2023-04-05T09:17:36.669Z,100925.03
2023-04-05T09:20:08.045Z,100935.88
2023-04-05T09:22:45.519Z,100940.06
2023-04-05T09:25:36.769Z,100911.97
2023-04-05T09:28:06.665Z,100931.81
2023-04-05T09:30:37.042Z,100926.75
2023-04-05T09:33:10.439Z,100945.88
2023-04-05T09:35:40.439Z,100949.59
2023-04-05T09:38:10.398Z,100952.84
2023-04-05T09:40:45.201Z,100911.50
2023-04-05T09:43:34.439Z,100953.84
2023-04-05T09:46:03.320Z,100952.94
2023-04-05T09:48:49.560Z,100893.66
2023-04-05T09:51:21.065Z,100937.72
2023-04-05T09:54:01.297Z,100952.28
2023-04-05T09:56:33.528Z,100927.78
2023-04-05T09:59:10.877Z,100945.81
2023-04-05T10:01:42.478Z,100887.38
2023-04-05T10:04:20.544Z,100940.03
2023-04-05T10:06:48.708Z,100934.56
2023-04-05T10:09:19.765Z,100928.28
2023-04-05T10:12:02.349Z,100933.69
2023-04-05T10:14:33.221Z,100925.50
2023-04-05T10:17:10.503Z,100924.38
2023-04-05T10:19:59.028Z,100931.06
2023-04-05T10:22:42.478Z,100929.88
2023-04-05T10:25:18.628Z,100915.06
2023-04-05T10:27:54.876Z,100922.97
2023-04-05T10:30:26.490Z,100919.25
2023-04-05T10:33:07.543Z,100903.50
2023-04-05T10:35:45.679Z,100899.69
2023-04-05T10:38:25.572Z,100916.47
2023-04-05T10:40:56.870Z,100885.25
2023-04-05T10:43:28.612Z,100910.06
2023-04-05T10:46:00.630Z,100905.75
2023-04-05T10:48:46.622Z,100905.72
2023-04-05T10:51:18.125Z,100889.03
2023-04-05T10:53:50.616Z,100896.94
2023-04-05T10:56:32.158Z,100896.94
2023-04-05T10:59:03.254Z,100886.97
2023-04-05T11:01:34.610Z,100876.91
2023-04-05T11:04:12.882Z,100888.72
2023-04-05T11:06:48.055Z,100888.66
2023-04-05T11:09:21.442Z,100888.09
2023-04-05T11:11:54.009Z,100875.84
2023-04-05T11:14:26.129Z,100876.25
2023-04-05T11:16:59.939Z,100861.47
2023-04-05T11:19:53.872Z,100875.59
2023-04-05T11:22:29.824Z,100876.69
2023-04-05T11:25:03.412Z,100856.97
2023-04-05T11:27:33.308Z,100820.03
2023-04-05T11:30:07.504Z,100831.34
2023-04-05T11:32:43.719Z,100855.91
2023-04-05T11:35:17.778Z,100843.31
2023-04-05T11:38:24.230Z,100865.31
2023-04-05T11:41:06.326Z,100852.63
2023-04-05T11:43:38.380Z,100858.06
2023-04-05T11:46:09.334Z,100838.50
2023-04-05T11:48:37.722Z,100850.94
2023-04-05T11:51:11.761Z,100846.91
2023-04-05T11:53:47.200Z,100844.66
2023-04-05T11:56:16.218Z,100828.75
2023-04-05T11:58:53.121Z,100833.66
2023-04-05T12:01:23.995Z,100829.91
2023-04-05T12:03:55.632Z,100776.31
2023-04-05T12:06:26.626Z,100799.56
2023-04-05T12:08:56.646Z,100829.88
2023-04-05T12:11:32.404Z,100825.03
2023-04-05T12:14:04.414Z,100814.63
2023-04-05T12:16:35.366Z,100799.91
2023-04-05T12:19:03.401Z,100800.16
2023-04-05T12:21:32.600Z,100795.97
2023-04-05T12:24:01.257Z,100807.34
2023-04-05T12:26:35.722Z,100805.41
2023-04-05T12:29:06.259Z,100801.66
2023-04-05T12:31:56.197Z,100798.69
2023-04-05T12:34:30.535Z,100775.25
2023-04-05T12:37:03.682Z,100781.59
2023-04-05T12:39:34.528Z,100788.47
2023-04-05T12:42:03.948Z,100779.63
2023-04-05T12:44:32.818Z,100785.69
2023-04-05T12:47:03.586Z,100781.31
2023-04-05T12:49:36.507Z,100780.13
2023-04-05T12:52:05.782Z,100765.75
2023-04-05T12:54:35.249Z,100764.56
2023-04-05T12:57:09.155Z,100770.63
2023-04-05T12:59:40.124Z,100730.03
2023-04-05T13:02:10.059Z,100755.13
2023-04-05T13:04:40.416Z,100758.06
2023-04-05T13:07:08.284Z,100761.22
2023-04-05T13:09:44.975Z,100754.13
2023-04-05T13:12:14.293Z,100757.41
2023-04-05T13:14:43.638Z,100751.81
2023-04-05T13:17:15.142Z,100736.97
2023-04-05T13:19:47.281Z,100747.84
2023-04-05T13:22:17.203Z,100729.69
2023-04-05T13:24:45.863Z,100722.56
2023-04-05T13:27:15.071Z,100739.28
2023-04-05T13:29:43.748Z,100723.63
2023-04-05T13:32:15.206Z,100731.34
2023-04-05T13:34:43.399Z,100735.50
2023-04-05T13:37:15.053Z,100725.09
2023-04-05T13:39:45.445Z,100739.50
2023-04-05T13:42:13.921Z,100731.31
2023-04-05T13:44:44.560Z,100721.53
2023-04-05T13:47:17.856Z,100726.56
2023-04-05T13:49:48.985Z,100725.09
2023-04-05T13:52:18.412Z,100722.56
2023-04-05T13:54:46.445Z,100712.97
2023-04-05T13:57:15.485Z,100690.63
2023-04-05T13:59:43.916Z,100707.97
2023-04-05T14:02:12.560Z,100705.88
2023-04-05T14:04:42.816Z,100676.63
2023-04-05T14:07:11.510Z,100711.22
2023-04-05T14:09:40.069Z,100697.31
2023-04-05T14:12:08.636Z,100699.59
2023-04-05T14:14:36.982Z,100647.81
2023-04-05T14:17:10.042Z,100688.06
2023-04-05T14:19:38.474Z,100654.00
2023-04-05T14:22:09.190Z,100686.94
2023-04-05T14:24:46.506Z,100673.59
2023-04-05T14:27:16.951Z,100668.38
2023-04-05T14:29:46.808Z,100658.81
2023-04-05T14:32:16.220Z,100651.78
2023-04-05T14:34:46.021Z,100625.19
2023-04-05T14:37:20.450Z,100612.75
2023-04-05T14:39:50.481Z,100653.03
2023-04-05T14:42:23.836Z,100659.44
2023-04-05T14:44:56.812Z,100640.34
2023-04-05T14:47:25.146Z,100614.00
2023-04-05T14:49:54.528Z,100646.53
2023-04-05T14:52:23.993Z,100651.97
2023-04-05T14:54:53.097Z,100644.47
2023-04-05T14:57:21.699Z,100626.00
2023-04-05T14:59:53.608Z,100637.84
2023-04-05T15:02:22.049Z,100634.38
2023-04-05T15:04:51.087Z,100601.91
2023-04-05T15:07:20.821Z,100604.66
2023-04-05T15:09:51.989Z,100629.78
2023-04-05T15:12:21.635Z,100627.50
2023-04-05T15:14:52.585Z,100636.66
2023-04-05T15:17:21.148Z,100635.63
2023-04-05T15:19:50.719Z,100625.06
2023-04-05T15:22:20.840Z,100625.75
2023-04-05T15:24:54.629Z,100629.84
2023-04-05T15:27:23.407Z,100626.84
2023-04-05T15:29:52.294Z,100621.00
2023-04-05T15:32:23.598Z,100620.44
2023-04-05T15:34:51.648Z,100624.91
2023-04-05T15:37:22.758Z,100627.72
2023-04-05T15:39:51.677Z,100624.44
2023-04-05T15:42:26.361Z,100629.19
2023-04-05T15:44:58.117Z,100620.25
2023-04-05T15:47:26.932Z,100628.44
2023-04-05T15:49:56.324Z,100615.34
2023-04-05T15:52:24.735Z,100636.75
2023-04-05T15:54:53.784Z,100635.75
2023-04-05T15:57:24.798Z,100590.94
2023-04-05T16:00:02.216Z,100631.91
2023-04-05T16:02:33.962Z,100637.31
2023-04-05T16:05:06.364Z,100636.16
2023-04-05T16:07:36.292Z,100581.28
2023-04-05T16:10:08.630Z,100634.91
2023-04-05T16:12:38.021Z,100632.41
2023-04-05T16:15:08.769Z,100619.34
2023-04-05T16:17:37.989Z,100631.84
2023-04-05T16:20:08.073Z,100609.19
2023-04-05T16:22:39.383Z,100623.50
2023-04-05T16:25:08.645Z,100625.66
2023-04-05T16:27:37.449Z,100617.59
2023-04-05T16:30:09.793Z,100628.63
2023-04-05T16:32:38.415Z,100582.59
2023-04-05T16:35:08.907Z,100628.22
2023-04-05T16:37:42.889Z,100616.38
2023-04-05T16:40:14.052Z,100621.44
2023-04-05T16:42:42.164Z,100609.97
2023-04-05T16:45:13.711Z,100605.22
2023-04-05T16:47:43.552Z,100581.88
2023-04-05T16:50:13.138Z,100613.81
2023-04-05T16:52:41.407Z,100600.91
2023-04-05T16:55:15.687Z,100619.06
2023-04-05T16:57:43.847Z,100615.06
2023-04-05T17:00:17.752Z,100611.34
2023-04-05T17:02:49.500Z,100620.31
2023-04-05T17:05:19.066Z,100572.50
2023-04-05T17:07:53.161Z,100598.41
2023-04-05T17:10:23.247Z,100615.72
2023-04-05T17:13:00.927Z,100584.03
2023-04-05T17:15:31.155Z,100620.09
2023-04-05T17:18:09.546Z,100618.44
2023-04-05T17:20:39.235Z,100622.41
2023-04-05T17:23:16.999Z,100622.53
2023-04-05T17:25:49.328Z,100613.56
2023-04-05T17:28:18.742Z,100618.78
2023-04-05T17:30:55.488Z,100622.72
2023-04-05T17:33:24.016Z,100618.09
2023-04-05T17:35:53.403Z,100627.31
2023-04-05T17:38:22.603Z,100600.53
2023-04-05T17:40:56.431Z,100623.25
2023-04-05T17:43:27.286Z,100566.47
2023-04-05T17:45:58.097Z,100629.69
2023-04-05T17:48:27.186Z,100633.13
2023-04-05T17:50:57.114Z,100630.56
2023-04-05T17:53:25.176Z,100628.06
2023-04-05T17:55:57.365Z,100622.81
2023-04-05T17:58:25.436Z,100605.09
2023-04-05T18:00:54.342Z,100594.53
2023-04-05T18:03:28.612Z,100593.16
2023-04-05T18:05:57.561Z,100557.09
2023-04-05T18:08:26.965Z,100622.88
2023-04-05T18:11:02.201Z,100583.56
2023-04-05T18:13:36.487Z,100626.88
2023-04-05T18:16:07.837Z,100616.22
2023-04-05T18:18:42.620Z,100632.41
2023-04-05T18:21:10.599Z,100563.72
2023-04-05T18:23:39.440Z,100596.72
2023-04-05T18:26:09.162Z,100631.34
2023-04-05T18:28:38.429Z,100637.13
2023-04-05T18:31:10.216Z,100642.91
2023-04-05T18:33:41.584Z,100644.94
2023-04-05T18:36:09.563Z,100621.81
2023-04-05T18:38:38.846Z,100635.00
2023-04-05T18:41:10.906Z,100638.09
2023-04-05T18:43:41.171Z,100651.09
2023-04-05T18:46:21.253Z,100651.47
2023-04-05T18:48:54.994Z,100645.31
2023-04-05T18:51:27.211Z,100649.97
2023-04-05T18:53:56.531Z,100655.44
2023-04-05T18:56:32.254Z,100639.16
2023-04-05T18:59:09.966Z,100666.22
2023-04-05T19:01:42.718Z,100666.97
2023-04-05T19:04:13.542Z,100668.34
2023-04-05T19:06:41.873Z,100661.31
2023-04-05T19:09:12.527Z,100667.53
2023-04-05T19:11:42.491Z,100669.06
2023-04-05T19:14:16.687Z,100651.09
2023-04-05T19:16:45.670Z,100665.81
2023-04-05T19:19:17.407Z,100675.34
2023-04-05T19:21:45.716Z,100673.91
2023-04-05T19:24:15.486Z,100678.78
2023-04-05T19:26:47.696Z,100648.84
2023-04-05T19:29:22.424Z,100675.19
2023-04-05T19:31:51.111Z,100685.31
2023-04-05T19:34:29.334Z,100677.28
2023-04-05T19:37:01.882Z,100692.41
2023-04-05T19:39:30.101Z,100689.72
2023-04-05T19:42:04.549Z,100690.69
2023-04-05T19:44:49.983Z,100687.41
2023-04-05T19:47:23.513Z,100691.31
2023-04-05T19:49:58.497Z,100678.38
2023-04-05T19:52:41.656Z,100689.97
2023-04-05T19:55:30.644Z,100673.06
2023-04-05T19:58:05.412Z,100660.13
2023-04-05T20:00:37.576Z,100695.88
2023-04-05T20:03:29.646Z,100682.28
2023-04-05T20:06:18.355Z,100683.75
2023-04-05T20:08:49.017Z,100696.16
2023-04-05T20:11:21.393Z,100681.38
2023-04-05T20:13:55.268Z,100692.78
2023-04-05T20:16:29.340Z,100691.50
2023-04-05T20:19:08.977Z,100695.16
2023-04-05T20:21:39.942Z,100671.88
2023-04-05T20:24:10.912Z,100693.88
2023-04-05T20:26:45.012Z,100696.09
2023-04-05T20:29:18.310Z,100697.09
2023-04-05T20:31:48.057Z,100695.88
2023-04-05T20:34:21.125Z,100689.34
2023-04-05T20:36:53.429Z,100694.88
2023-04-05T20:39:27.406Z,100685.81
2023-04-05T20:41:56.928Z,100694.59
2023-04-05T20:44:27.410Z,100641.72
2023-04-05T20:46:57.691Z,100685.34
2023-04-05T20:49:28.384Z,100678.50
2023-04-05T20:52:00.051Z,100667.25
2023-04-05T20:54:28.411Z,100676.31
2023-04-05T20:56:57.084Z,100663.75
2023-04-05T20:59:33.957Z,100681.00
2023-04-05T21:02:07.043Z,100672.44
2023-04-05T21:04:44.223Z,100650.31
2023-04-05T21:07:15.306Z,100646.09
2023-04-05T21:09:43.683Z,100658.38
2023-04-05T21:12:12.765Z,100683.38
2023-04-05T21:14:41.129Z,100684.22
2023-04-05T21:17:10.884Z,100634.38
2023-04-05T21:19:39.831Z,100676.97
2023-04-05T21:22:08.504Z,100639.88
2023-04-05T21:24:47.002Z,100680.00
2023-04-05T21:27:15.755Z,100663.88
2023-04-05T21:29:46.339Z,100680.50
2023-04-05T21:32:15.869Z,100655.78
2023-04-05T21:34:45.239Z,100685.66
2023-04-05T21:37:16.666Z,100687.13
2023-04-05T21:39:48.037Z,100676.38
2023-04-05T21:42:17.743Z,100688.66
2023-04-05T21:44:46.626Z,100682.97
2023-04-05T21:47:17.892Z,100670.66
2023-04-05T21:49:47.160Z,100690.97
2023-04-05T21:52:15.490Z,100689.34
2023-04-05T21:54:46.117Z,100693.16
2023-04-05T21:57:14.857Z,100693.16
2023-04-05T21:59:47.720Z,100686.31
2023-04-05T22:02:16.367Z,100691.63
2023-04-05T22:04:48.450Z,100686.91
2023-04-05T22:07:22.030Z,100684.97
2023-04-05T22:09:55.749Z,100675.44
2023-04-05T22:12:25.756Z,100678.97
2023-04-05T22:14:56.883Z,100688.38
2023-04-05T22:17:27.881Z,100687.88
2023-04-05T22:19:56.024Z,100689.53
2023-04-05T22:22:25.121Z,100667.69
2023-04-05T22:24:56.819Z,100691.91
2023-04-05T22:27:29.371Z,100688.66
2023-04-05T22:29:58.773Z,100697.06
2023-04-05T22:32:27.221Z,100646.63
2023-04-05T22:34:57.407Z,100689.91
2023-04-05T22:37:27.035Z,100693.41
2023-04-05T22:39:57.846Z,100692.94
2023-04-05T22:42:27.659Z,100689.16
2023-04-05T22:44:59.705Z,100701.06
2023-04-05T22:47:27.753Z,100694.31
2023-04-05T22:49:58.288Z,100690.00
2023-04-05T22:52:27.593Z,100692.91
2023-04-05T22:54:57.587Z,100677.72
2023-04-05T22:57:26.366Z,100704.25
2023-04-05T22:59:54.478Z,100692.78
2023-04-05T23:02:25.113Z,100668.72
2023-04-05T23:04:55.150Z,100693.69
2023-04-05T23:07:23.332Z,100677.16
2023-04-05T23:09:57.177Z,100681.72
2023-04-05T23:12:27.326Z,100678.03
2023-04-05T23:14:56.484Z,100690.16
2023-04-05T23:17:25.807Z,100691.53
2023-04-05T23:19:57.461Z,100698.63
2023-04-05T23:22:26.775Z,100692.47
2023-04-05T23:24:54.821Z,100696.19
2023-04-05T23:27:23.217Z,100700.34
2023-04-05T23:29:52.807Z,100691.84
2023-04-05T23:32:24.458Z,100673.97
2023-04-05T23:34:53.921Z,100662.88
2023-04-05T23:37:22.778Z,100679.72
2023-04-05T23:39:50.840Z,100686.91
2023-04-05T23:42:20.739Z,100687.41
2023-04-05T23:44:50.096Z,100688.56
2023-04-05T23:47:20.101Z,100679.63
2023-04-05T23:49:48.751Z,100684.28
2023-04-05T23:52:19.589Z,100684.28
2023-04-05T23:54:48.140Z,100685.28
2023-04-05T23:57:18.348Z,100683.59
2023-04-05T23:59:50.998Z,100668.69
